createdAt,value
2023-03-01T00:01:49.351Z,8.70
2023-03-01T00:04:17.875Z,8.55
2023-03-01T00:06:49.488Z,9.10
2023-03-01T00:09:17.934Z,9.45
2023-03-01T00:11:46.711Z,9.55
2023-03-01T00:14:17.440Z,9.52
2023-03-01T00:16:46.416Z,8.07
2023-03-01T00:19:18.315Z,11.07
2023-03-01T00:21:47.529Z,10.73
2023-03-01T00:24:16.053Z,10.57
2023-03-01T00:26:44.904Z,9.50
2023-03-01T00:29:13.238Z,8.63
2023-03-01T00:31:41.793Z,7.55
2023-03-01T00:34:10.833Z,11.23
2023-03-01T00:36:39.611Z,15.20
2023-03-01T00:39:13.067Z,9.30
2023-03-01T00:41:42.329Z,8.45
2023-03-01T00:44:10.992Z,9.23
2023-03-01T00:46:39.640Z,10.07
2023-03-01T00:49:08.136Z,9.30
2023-03-01T00:51:36.845Z,9.82
2023-03-01T00:54:05.286Z,7.90
2023-03-01T00:56:34.400Z,12.48
2023-03-01T00:59:03.390Z,12.05
2023-03-01T01:01:32.416Z,12.80
2023-03-01T01:04:03.871Z,9.15
2023-03-01T01:06:45.831Z,10.65
2023-03-01T01:09:19.709Z,10.60
2023-03-01T01:11:51.218Z,11.88
2023-03-01T01:14:19.972Z,10.63
2023-03-01T01:16:48.948Z,8.90
2023-03-01T01:19:17.594Z,10.40
2023-03-01T01:21:46.508Z,12.35
2023-03-01T01:24:15.217Z,12.95
2023-03-01T01:26:44.407Z,12.63
2023-03-01T01:29:13.100Z,9.85
2023-03-01T01:31:42.843Z,12.80
2023-03-01T01:34:17.086Z,11.52
2023-03-01T01:36:50.044Z,10.50
2023-03-01T01:39:18.485Z,11.93
2023-03-01T01:41:47.248Z,13.60
2023-03-01T01:44:22.260Z,13.75
2023-03-01T01:47:06.519Z,12.23
2023-03-01T01:49:38.777Z,11.18
2023-03-01T01:52:28.506Z,14.73
2023-03-01T01:55:08.311Z,14.20
2023-03-01T01:57:46.189Z,11.65
2023-03-01T02:00:21.527Z,13.25
2023-03-01T02:02:53.277Z,12.13
2023-03-01T02:05:28.010Z,9.98
2023-03-01T02:07:57.509Z,10.35
2023-03-01T02:10:25.848Z,14.50
2023-03-01T02:12:54.589Z,12.63
2023-03-01T02:15:24.459Z,12.35
2023-03-01T02:17:53.577Z,11.10
2023-03-01T02:20:24.748Z,12.18
2023-03-01T02:22:53.482Z,12.50
2023-03-01T02:26:07.568Z,13.88
2023-03-01T02:28:38.030Z,13.52
2023-03-01T02:31:26.584Z,11.98
2023-03-01T02:33:55.538Z,14.35
2023-03-01T02:36:31.538Z,13.43
2023-03-01T02:39:01.317Z,12.95
2023-03-01T02:41:32.299Z,13.98
2023-03-01T02:44:01.419Z,12.38
2023-03-01T02:46:31.210Z,12.30
2023-03-01T02:49:00.447Z,14.90
2023-03-01T02:51:36.034Z,13.95
2023-03-01T02:54:30.102Z,12.55
2023-03-01T02:56:58.644Z,14.15
2023-03-01T02:59:32.460Z,12.40
2023-03-01T03:04:30.850Z,11.63
2023-03-01T03:06:59.751Z,13.32
2023-03-01T03:09:29.601Z,14.77
2023-03-01T03:11:58.621Z,14.80
2023-03-01T03:14:27.671Z,14.60
2023-03-01T03:16:56.341Z,14.50
2023-03-01T03:19:25.132Z,12.65
2023-03-01T03:21:53.692Z,14.68
2023-03-01T03:24:22.340Z,13.90
2023-03-01T03:26:50.721Z,12.23
2023-03-01T03:29:19.439Z,12.45
2023-03-01T03:31:47.924Z,12.93
2023-03-01T03:34:19.251Z,16.13
2023-03-01T03:36:47.670Z,17.30
2023-03-01T03:39:16.338Z,13.45
2023-03-01T03:41:44.641Z,14.82
2023-03-01T03:44:13.239Z,13.75
2023-03-01T03:46:41.581Z,14.65
2023-03-01T03:49:10.219Z,14.63
2023-03-01T03:51:38.579Z,12.00
2023-03-01T03:54:07.432Z,12.25
2023-03-01T03:56:36.189Z,15.73
2023-03-01T03:59:04.810Z,14.98
2023-03-01T04:01:33.308Z,13.60
2023-03-01T04:04:05.353Z,10.63
2023-03-01T04:06:33.989Z,14.48
2023-03-01T04:09:03.586Z,12.05
2023-03-01T04:11:32.442Z,13.85
2023-03-01T04:14:01.398Z,12.70
2023-03-01T04:16:30.227Z,11.05
2023-03-01T04:19:01.017Z,14.27
2023-03-01T04:21:29.418Z,12.63
2023-03-01T04:23:58.226Z,13.70
2023-03-01T04:26:26.569Z,11.93
2023-03-01T04:28:55.269Z,16.35
2023-03-01T04:31:23.960Z,12.60
2023-03-01T04:33:54.862Z,15.05
2023-03-01T04:36:28.895Z,14.00
2023-03-01T04:38:57.913Z,16.02
2023-03-01T04:41:26.679Z,10.65
2023-03-01T04:43:55.448Z,13.25
2023-03-01T04:46:23.963Z,14.45
2023-03-01T04:48:52.740Z,14.25
2023-03-01T04:51:21.138Z,13.90
2023-03-01T04:53:50.060Z,13.23
2023-03-01T04:56:24.289Z,11.98
2023-03-01T04:58:55.384Z,14.43
2023-03-01T05:01:23.699Z,12.90
2023-03-01T05:03:52.794Z,12.68
2023-03-01T05:06:22.139Z,12.43
2023-03-01T05:08:50.977Z,15.73
2023-03-01T05:11:19.319Z,13.50
2023-03-01T05:13:48.180Z,12.60
2023-03-01T05:16:18.063Z,13.63
2023-03-01T05:18:47.218Z,10.45
2023-03-01T05:21:17.464Z,11.18
2023-03-01T05:23:48.035Z,11.85
2023-03-01T05:26:34.040Z,14.25
2023-03-01T05:29:02.785Z,11.98
2023-03-01T05:31:32.156Z,11.25
2023-03-01T05:34:00.951Z,13.27
2023-03-01T05:36:29.557Z,9.95
2023-03-01T05:38:58.789Z,13.57
2023-03-01T05:41:27.172Z,12.93
2023-03-01T05:43:55.888Z,10.48
2023-03-01T05:46:25.742Z,10.85
2023-03-01T05:48:54.466Z,11.32
2023-03-01T05:51:23.406Z,9.88
2023-03-01T05:53:52.089Z,11.52
2023-03-01T05:56:23.436Z,10.75
2023-03-01T05:58:52.281Z,10.43
2023-03-01T06:01:20.665Z,10.98
2023-03-01T06:03:49.733Z,10.55
2023-03-01T06:06:18.112Z,12.65
2023-03-01T06:08:46.970Z,10.93
2023-03-01T06:11:15.380Z,10.43
2023-03-01T06:13:45.122Z,11.73
2023-03-01T06:16:14.057Z,11.27
2023-03-01T06:18:42.960Z,10.57
2023-03-01T06:21:11.382Z,8.98
2023-03-01T06:23:39.972Z,12.93
2023-03-01T06:26:08.917Z,10.82
2023-03-01T06:28:37.935Z,11.38
2023-03-01T06:31:09.968Z,8.82
2023-03-01T06:33:38.816Z,12.65
2023-03-01T06:36:08.144Z,9.98
2023-03-01T06:38:36.991Z,12.98
2023-03-01T06:41:05.512Z,11.05
2023-03-01T06:43:34.515Z,11.68
2023-03-01T06:46:08.141Z,10.82
2023-03-01T06:48:36.927Z,10.80
2023-03-01T06:51:05.491Z,11.18
2023-03-01T06:53:34.492Z,12.13
2023-03-01T06:56:02.732Z,11.35
2023-03-01T06:58:31.613Z,11.68
2023-03-01T07:01:00.090Z,13.93
2023-03-01T07:03:28.825Z,10.25
2023-03-01T07:05:57.340Z,14.60
2023-03-01T07:08:26.113Z,12.38
2023-03-01T07:10:58.847Z,9.98
2023-03-01T07:13:27.708Z,12.93
2023-03-01T07:15:56.088Z,13.65
2023-03-01T07:18:25.007Z,11.65
2023-03-01T07:20:53.493Z,12.30
2023-03-01T07:23:22.469Z,10.93
2023-03-01T07:25:56.918Z,15.73
2023-03-01T07:28:25.839Z,12.25
2023-03-01T07:30:54.376Z,12.63
2023-03-01T07:33:23.107Z,13.48
2023-03-01T07:36:01.088Z,12.68
2023-03-01T07:38:30.302Z,14.93
2023-03-01T07:41:03.139Z,12.48
2023-03-01T07:43:32.022Z,17.52
2023-03-01T07:46:02.084Z,15.75
2023-03-01T07:48:31.465Z,12.70
2023-03-01T07:51:05.056Z,12.98
2023-03-01T07:53:35.420Z,17.55
2023-03-01T07:56:12.206Z,22.40
2023-03-01T07:58:43.735Z,15.98
2023-03-01T08:01:15.390Z,18.77
2023-03-01T08:03:44.929Z,14.20
2023-03-01T08:06:15.197Z,18.98
2023-03-01T08:08:44.160Z,14.50
2023-03-01T08:11:13.997Z,17.13
2023-03-01T08:13:43.677Z,15.48
2023-03-01T08:16:14.771Z,29.23
2023-03-01T08:18:44.364Z,12.93
2023-03-01T08:21:15.421Z,17.38
2023-03-01T08:23:44.437Z,14.45
2023-03-01T08:26:19.668Z,17.65
2023-03-01T08:28:49.545Z,16.42
2023-03-01T08:31:40.417Z,21.08
2023-03-01T08:34:12.690Z,22.17
2023-03-01T08:36:43.611Z,19.60
2023-03-01T08:39:14.587Z,15.52
2023-03-01T08:41:43.237Z,15.50
2023-03-01T08:44:13.177Z,25.20
2023-03-01T08:46:42.663Z,30.45
2023-03-01T08:49:15.448Z,19.63
2023-03-01T08:51:44.850Z,20.25
2023-03-01T08:54:19.765Z,17.10
2023-03-01T08:56:48.326Z,15.20
2023-03-01T08:59:18.443Z,15.63
2023-03-01T09:01:47.041Z,18.60
2023-03-01T09:04:16.489Z,15.23
2023-03-01T09:06:44.999Z,13.00
2023-03-01T09:09:18.443Z,16.90
2023-03-01T09:14:16.657Z,16.38
2023-03-01T09:16:45.219Z,17.35
2023-03-01T09:19:14.105Z,13.32
2023-03-01T09:21:42.626Z,22.80
2023-03-01T09:24:15.648Z,21.33
2023-03-01T09:26:48.857Z,15.65
2023-03-01T09:29:19.153Z,14.27
2023-03-01T09:31:47.630Z,19.25
2023-03-01T09:34:20.465Z,16.23
2023-03-01T09:36:48.821Z,13.48
2023-03-01T09:39:19.058Z,16.48
2023-03-01T09:42:05.400Z,14.52
2023-03-01T09:45:07.964Z,14.90
2023-03-01T09:47:37.333Z,16.17
2023-03-01T09:50:18.578Z,16.02
2023-03-01T09:52:52.334Z,14.15
2023-03-01T09:55:29.464Z,22.75
2023-03-01T09:58:22.902Z,25.05
2023-03-01T10:00:51.701Z,29.80
2023-03-01T10:03:38.406Z,20.55
2023-03-01T10:06:34.078Z,24.20
2023-03-01T10:09:18.045Z,12.95
2023-03-01T10:14:38.495Z,19.80
2023-03-01T10:17:36.406Z,15.20
2023-03-01T10:20:48.126Z,21.80
2023-03-01T10:23:16.804Z,16.83
2023-03-01T10:26:25.502Z,21.70
2023-03-01T10:29:03.733Z,14.32
2023-03-01T10:31:52.389Z,16.02
2023-03-01T10:34:28.627Z,16.02
2023-03-01T10:37:11.099Z,17.10
2023-03-01T10:39:56.255Z,16.55
2023-03-01T10:42:32.550Z,17.88
2023-03-01T10:45:35.995Z,23.13
2023-03-01T10:48:14.587Z,26.02
2023-03-01T10:50:46.336Z,22.38
2023-03-01T10:53:35.923Z,21.48
2023-03-01T10:56:14.615Z,16.17
2023-03-01T10:59:04.657Z,18.95
2023-03-01T11:01:36.894Z,15.13
2023-03-01T11:04:08.412Z,17.10
2023-03-01T11:06:43.403Z,15.52
2023-03-01T11:09:25.773Z,20.77
2023-03-01T11:11:59.046Z,14.90
2023-03-01T11:14:31.888Z,17.67
2023-03-01T11:22:29.699Z,19.77
2023-03-01T11:25:09.293Z,21.30
2023-03-01T11:27:43.574Z,15.57
2023-03-01T11:33:13.072Z,19.63
2023-03-01T11:36:08.503Z,24.58
2023-03-01T11:38:37.475Z,13.70
2023-03-01T11:41:19.529Z,18.73
2023-03-01T11:43:55.729Z,15.27
2023-03-01T11:46:33.311Z,15.93
2023-03-01T11:49:26.752Z,21.77
2023-03-01T11:52:15.662Z,21.88
2023-03-01T11:55:30.049Z,20.08
2023-03-01T11:58:26.848Z,35.47
2023-03-01T12:01:25.557Z,29.30
2023-03-01T12:04:24.934Z,30.58
2023-03-01T13:01:16.542Z,33.67
2023-03-01T13:04:28.697Z,27.63
2023-03-01T13:07:12.063Z,23.17
2023-03-01T13:10:33.668Z,28.55
2023-03-01T13:13:26.199Z,22.52
2023-03-01T13:15:55.527Z,24.05
2023-03-01T13:18:24.482Z,20.33
2023-03-01T13:20:58.615Z,19.52
2023-03-01T13:23:37.771Z,21.38
2023-03-01T13:26:26.965Z,18.35
2023-03-01T13:28:58.514Z,25.63
2023-03-01T13:31:27.382Z,20.55
2023-03-01T13:33:57.382Z,30.15
2023-03-01T13:36:30.060Z,23.30
2023-03-01T13:39:04.165Z,19.67
2023-03-01T13:41:44.885Z,17.48
2023-03-01T13:44:40.079Z,16.75
2023-03-01T13:47:09.644Z,16.85
2023-03-01T13:49:59.811Z,16.55
2023-03-01T13:52:55.723Z,18.30
2023-03-01T13:55:43.125Z,16.25
2023-03-01T13:58:22.718Z,17.95
2023-03-01T14:01:04.712Z,18.48
2023-03-01T14:03:35.310Z,22.40
2023-03-01T14:06:15.419Z,15.60
2023-03-01T14:08:47.042Z,19.55
2023-03-01T14:11:26.178Z,18.05
2023-03-01T14:14:19.398Z,15.48
2023-03-01T14:17:24.875Z,18.88
2023-03-01T14:20:21.639Z,13.40
2023-03-01T14:22:53.106Z,17.02
2023-03-01T14:25:31.273Z,17.58
2023-03-01T14:28:14.785Z,16.95
2023-03-01T14:30:57.504Z,20.83
2023-03-01T14:33:42.315Z,17.93
2023-03-01T14:36:12.847Z,13.57
2023-03-01T14:38:46.352Z,13.48
2023-03-01T14:41:26.923Z,12.65
2023-03-01T14:44:08.182Z,15.80
2023-03-01T14:46:39.577Z,13.30
2023-03-01T14:49:16.886Z,16.05
2023-03-01T14:52:03.586Z,14.48
2023-03-01T14:54:45.576Z,13.20
2023-03-01T14:57:23.112Z,17.05
2023-03-01T14:59:57.067Z,16.85
2023-03-01T15:02:29.300Z,14.05
2023-03-01T15:05:01.924Z,21.55
2023-03-01T15:07:35.558Z,15.73
2023-03-01T15:10:06.505Z,15.20
2023-03-01T15:12:40.946Z,16.05
2023-03-01T15:15:48.421Z,13.70
2023-03-01T15:18:23.366Z,13.10
2023-03-01T15:20:51.863Z,16.55
2023-03-01T15:23:28.906Z,13.10
2023-03-01T15:25:57.756Z,14.60
2023-03-01T15:28:44.571Z,16.42
2023-03-01T15:31:24.659Z,13.15
2023-03-01T15:33:53.543Z,13.00
2023-03-01T15:36:44.343Z,11.13
2023-03-01T15:39:38.693Z,10.27
2023-03-01T15:42:13.930Z,14.57
2023-03-01T15:44:48.696Z,13.57
2023-03-01T15:47:51.336Z,11.40
2023-03-01T15:50:28.941Z,11.53
2023-03-01T15:52:58.015Z,13.48
2023-03-01T15:55:30.810Z,10.20
2023-03-01T15:58:24.077Z,18.50
2023-03-01T16:03:31.033Z,8.35
2023-03-01T16:05:59.927Z,11.32
2023-03-01T16:08:28.550Z,11.05
2023-03-01T16:10:57.513Z,8.23
2023-03-01T16:13:28.338Z,10.35
2023-03-01T16:15:58.753Z,12.10
2023-03-01T16:18:27.253Z,10.32
2023-03-01T16:20:56.519Z,8.13
2023-03-01T16:23:26.262Z,13.70
2023-03-01T16:25:55.088Z,5.97
2023-03-01T16:28:23.570Z,8.75
2023-03-01T16:30:52.631Z,8.27
2023-03-01T16:33:28.995Z,8.13
2023-03-01T16:36:11.172Z,8.80
2023-03-01T16:38:39.904Z,7.03
2023-03-01T16:41:17.369Z,16.88
2023-03-01T16:43:47.766Z,7.40
2023-03-01T16:46:29.729Z,7.80
2023-03-01T16:48:58.421Z,9.35
2023-03-01T16:51:27.234Z,17.92
2023-03-01T16:53:55.863Z,9.35
2023-03-01T16:56:24.806Z,6.90
2023-03-01T16:58:53.321Z,9.98
2023-03-01T17:01:25.658Z,9.63
2023-03-01T17:03:54.420Z,8.52
2023-03-01T17:06:24.905Z,11.98
2023-03-01T17:08:53.448Z,17.13
2023-03-01T17:11:22.519Z,7.95
2023-03-01T17:13:51.246Z,10.48
2023-03-01T17:16:21.354Z,16.00
2023-03-01T17:18:50.308Z,15.48
2023-03-01T17:21:19.184Z,9.50
2023-03-01T17:23:48.278Z,14.77
2023-03-01T17:26:17.775Z,11.23
2023-03-01T17:28:52.631Z,19.08
2023-03-01T17:31:22.051Z,16.67
2023-03-01T17:33:51.420Z,14.45
2023-03-01T17:36:20.289Z,10.60
2023-03-01T17:38:50.054Z,10.73
2023-03-01T17:41:19.720Z,14.05
2023-03-01T17:43:48.470Z,10.20
2023-03-01T17:46:17.627Z,12.93
2023-03-01T17:48:46.260Z,15.40
2023-03-01T17:51:15.251Z,10.75
2023-03-01T17:53:43.912Z,14.68
2023-03-01T17:56:12.992Z,6.45
2023-03-01T17:58:41.598Z,10.93
2023-03-01T18:01:13.009Z,11.73
2023-03-01T18:03:42.354Z,8.23
2023-03-01T18:06:17.877Z,8.52
2023-03-01T18:08:46.820Z,8.35
2023-03-01T18:11:16.009Z,10.05
2023-03-01T18:13:45.572Z,11.82
2023-03-01T18:16:20.441Z,10.93
2023-03-01T18:18:53.726Z,8.10
2023-03-01T18:21:23.821Z,13.10
2023-03-01T18:23:52.752Z,11.77
2023-03-01T18:26:23.020Z,12.13
2023-03-01T18:28:52.562Z,9.80
2023-03-01T18:31:22.924Z,10.25
2023-03-01T18:33:55.273Z,7.43
2023-03-01T18:36:30.420Z,10.57
2023-03-01T18:38:59.348Z,8.65
2023-03-01T18:41:28.622Z,10.40
2023-03-01T18:43:57.728Z,6.63
2023-03-01T18:46:27.261Z,12.82
2023-03-01T18:48:56.003Z,9.43
2023-03-01T18:51:27.323Z,7.82
2023-03-01T18:53:58.835Z,9.18
2023-03-01T18:56:30.077Z,8.20
2023-03-01T18:59:00.570Z,9.80
2023-03-01T19:01:30.918Z,8.10
2023-03-01T19:03:59.890Z,10.32
2023-03-01T19:06:34.794Z,8.43
2023-03-01T19:09:04.045Z,11.57
2023-03-01T19:11:33.826Z,6.45
2023-03-01T19:14:02.521Z,6.07
2023-03-01T19:16:32.936Z,9.70
2023-03-01T19:19:03.410Z,10.05
2023-03-01T19:21:32.868Z,8.52
2023-03-01T19:24:02.735Z,9.18
2023-03-01T19:26:32.396Z,8.05
2023-03-01T19:29:01.485Z,9.07
2023-03-01T19:31:31.220Z,12.00
2023-03-01T19:34:10.315Z,8.25
2023-03-01T19:36:42.926Z,12.00
2023-03-01T19:39:13.994Z,7.50
2023-03-01T19:41:43.847Z,16.05
2023-03-01T19:44:12.866Z,8.88
2023-03-01T19:46:42.073Z,8.43
2023-03-01T19:49:10.692Z,10.23
2023-03-01T19:51:39.674Z,8.95
2023-03-01T19:54:10.042Z,8.38
2023-03-01T19:56:40.887Z,5.95
2023-03-01T19:59:09.497Z,7.97
2023-03-01T20:01:42.646Z,5.82
2023-03-01T20:04:11.606Z,11.90
2023-03-01T20:06:41.797Z,6.60
2023-03-01T20:09:21.540Z,9.10
2023-03-01T20:11:51.782Z,6.40
2023-03-01T20:14:23.600Z,7.72
2023-03-01T20:16:53.113Z,9.63
2023-03-01T20:19:22.058Z,8.82
2023-03-01T20:21:51.918Z,10.55
2023-03-01T20:24:21.488Z,4.30
2023-03-01T20:26:51.600Z,6.75
2023-03-01T20:29:20.375Z,6.60
2023-03-01T20:31:50.188Z,5.50
2023-03-01T20:34:20.425Z,8.40
2023-03-01T20:36:50.310Z,6.93
2023-03-01T20:39:20.013Z,5.68
2023-03-01T20:41:50.443Z,6.63
2023-03-01T20:44:20.220Z,4.63
2023-03-01T20:46:52.014Z,6.35
2023-03-01T20:49:22.941Z,4.28
2023-03-01T20:51:55.951Z,9.27
2023-03-01T20:54:25.880Z,8.80
2023-03-01T20:56:55.755Z,6.25
2023-03-01T20:59:24.795Z,5.47
2023-03-01T21:01:54.277Z,6.78
2023-03-01T21:04:23.432Z,7.13
2023-03-01T21:06:53.486Z,6.18
2023-03-01T21:09:23.682Z,6.03
2023-03-01T21:11:52.726Z,8.80
2023-03-01T21:14:22.048Z,7.90
2023-03-01T21:16:51.322Z,8.02
2023-03-01T21:19:23.505Z,7.40
2023-03-01T21:21:53.777Z,9.38
2023-03-01T21:24:22.358Z,9.27
2023-03-01T21:26:51.146Z,8.52
2023-03-01T21:29:19.665Z,6.32
2023-03-01T21:31:48.555Z,8.35
2023-03-01T21:34:17.090Z,8.43
2023-03-01T21:36:46.021Z,8.07
2023-03-01T21:39:15.020Z,10.52
2023-03-01T21:41:43.819Z,10.38
2023-03-01T21:44:12.300Z,7.03
2023-03-01T21:46:41.534Z,10.77
2023-03-01T21:49:11.265Z,9.32
2023-03-01T21:51:40.256Z,10.05
2023-03-01T21:54:10.261Z,8.45
2023-03-01T21:56:39.813Z,12.90
2023-03-01T21:59:16.486Z,10.43
2023-03-01T22:01:45.549Z,13.25
2023-03-01T22:04:14.301Z,11.82
2023-03-01T22:06:45.280Z,10.10
2023-03-01T22:09:19.661Z,11.52
2023-03-01T22:12:02.818Z,10.48
2023-03-01T22:14:31.798Z,13.52
2023-03-01T22:17:00.715Z,9.63
2023-03-01T22:19:29.336Z,13.80
2023-03-01T22:21:58.150Z,10.15
2023-03-01T22:24:26.798Z,11.93
2023-03-01T22:26:55.734Z,10.00
2023-03-01T22:29:29.244Z,15.32
2023-03-01T22:31:58.709Z,15.65
2023-03-01T22:34:27.476Z,8.43
2023-03-01T22:36:56.693Z,13.07
2023-03-01T22:39:25.303Z,9.93
2023-03-01T22:41:54.653Z,9.15
2023-03-01T22:44:23.718Z,8.13
2023-03-01T22:46:52.683Z,10.38
2023-03-01T22:49:21.579Z,9.10
2023-03-01T22:51:50.682Z,9.35
2023-03-01T22:54:19.672Z,12.68
2023-03-01T22:56:48.716Z,9.70
2023-03-01T22:59:23.306Z,7.68
2023-03-01T23:01:53.008Z,9.63
2023-03-01T23:04:22.086Z,7.88
2023-03-01T23:06:50.975Z,8.50
2023-03-01T23:09:26.649Z,9.85
2023-03-01T23:11:55.754Z,10.13
2023-03-01T23:14:25.423Z,8.55
2023-03-01T23:16:54.398Z,10.10
2023-03-01T23:19:23.230Z,8.15
2023-03-01T23:21:54.568Z,10.20
2023-03-01T23:24:24.292Z,9.55
2023-03-01T23:26:55.863Z,8.52
2023-03-01T23:29:24.360Z,7.05
2023-03-01T23:31:56.106Z,6.35
2023-03-01T23:34:25.746Z,6.97
2023-03-01T23:36:55.076Z,8.10
2023-03-01T23:39:23.688Z,4.75
2023-03-01T23:41:52.454Z,7.60
2023-03-01T23:44:21.430Z,5.40
2023-03-01T23:46:50.819Z,9.95
2023-03-01T23:49:20.758Z,6.13
2023-03-01T23:51:49.743Z,8.82
2023-03-01T23:54:21.028Z,6.53
2023-03-01T23:56:50.300Z,8.25
2023-03-01T23:59:22.115Z,5.32
